• Join FlightAware (Why Join?)
  • Login
  • US Flag 
04:44AM EDT


 

Airport Tracker/Info


-or-


 

Live Flight TrackerFlight Track Log ✈ DAL2360 ✈ 13-May-2013 ✈ KSLC - KDCA

Flight Track Log - Related Links

Times and Time Zones

All times are in EDT time to prevent confusion due to time zone crossing. See the DAL2360 flight status page for this flight to view local times or setup timezone preferences in your user account.

Time Position Orientation Groundspeed Altitude Reporting Facility
EDT Latitude Longitude Course Direction KTS MPH feet Rate Location/Type
07:13PM 40.7614 -111.9956 90° East 185 213 5,200  Level Salt Lake Center
07:14PM 40.7472 -112.0392 247° West 216 249 6,100 1,140 Climbing Salt Lake Center
07:14PM 40.7517 -112.0564 289° West 229 264 6,400 1,740 Climbing Salt Lake Center
07:15PM 40.8153 -112.0925 337° Northwest 268 308 8,600 2,520 Climbing Salt Lake Center
07:16PM 41.0007 -112.2287 79° East  Level FlightAware Approximate
07:17PM 41.0167 -112.0536 90° East  Level FlightAware Approximate
07:17PM 40.8761 -112.0181 43° Northeast 282 325 11,600  Level Salt Lake Center
07:18PM 41.0167 -111.8766 90° East  Level FlightAware Approximate
07:18PM 40.9069 -111.9133 69° East 317 365 13,100  Level Salt Lake Center
07:19PM 41.0167 -111.6995 90° East  Level FlightAware Approximate
07:19PM 40.9400 -111.7917 70° East 365 420 14,600  Level Salt Lake Center
07:20PM 40.9756 -111.6650 70° East 377 434 17,400 2,160 Climbing Salt Lake Center
07:21PM 41.0131 -111.5344 69° East 383 441 19,100 1,260 Climbing Salt Lake Center
07:22PM 41.0531 -111.3503 74° East 442 509 20,000 1,200 Climbing Salt Lake Center
07:23PM 41.0658 -111.1817 84° East 459 528 21,600 1,560 Climbing Salt Lake Center
07:24PM 41.0911 -111.0086 79° East 478 550 23,300 1,500 Climbing Salt Lake Center
07:25PM 41.1369 -110.8336 71° East 493 567 24,700 1,260 Climbing Salt Lake Center
07:26PM 41.1783 -110.6664 72° East 497 572 26,000 1,380 Climbing Salt Lake Center
07:27PM 41.2294 -110.4706 71° East 503 579 27,600 1,560 Climbing Salt Lake Center
07:28PM 41.2717 -110.3039 71° East 498 573 29,200 1,500 Climbing Salt Lake Center
07:29PM 41.3200 -110.1108 72° East 494 568 30,800 1,440 Climbing Salt Lake Center
07:30PM 41.3614 -109.9483 71° East 485 558 32,200 1,020 Climbing Salt Lake Center
07:31PM 41.4025 -109.7856 71° East 485 558 32,900 360 Climbing Salt Lake Center
07:32PM 41.4486 -109.5964 72° East 480 552 33,000  Climbing Salt Lake Center
07:33PM 41.4892 -109.4342 71° East 480 552 33,000  Level Salt Lake Center
07:34PM 41.5367 -109.2428 72° East 480 552 33,000 60 Level Salt Lake Center
07:35PM 41.5769 -109.0750 72° East 483 556 33,200 240 Climbing Salt Lake Center
07:36PM 41.6053 -108.9075 77° East 477 549 33,600 360 Climbing Salt Lake Center
07:37PM 41.6294 -108.7136 80° East 471 542 34,000 360 Climbing Salt Lake Center
07:38PM 41.6506 -108.5481 80° East 472 543 34,400 480 Climbing Salt Lake Center
07:39PM 41.6742 -108.3550 81° East 472 543 35,000 240 Climbing Salt Lake Center
07:40PM 41.6950 -108.1906 80° East 469 540 35,000  Level Salt Lake Center
07:41PM 41.7233 -107.9697 80° East 469 540 35,000  Level Denver Center
07:42PM 41.7403 -107.8333 81° East 468 539 35,000  Level Denver Center
07:43PM 41.7625 -107.6386 81° East 472 543 35,000  Level Denver Center
07:44PM 41.7861 -107.4450 81° East 472 543 35,000  Level Denver Center
07:45PM 41.8061 -107.2786 81° East 473 544 35,000  Level Denver Center
07:46PM 41.8269 -107.0833 82° East 475 547 35,000  Level Denver Center
07:48PM 41.8478 -106.9156 80° East 477 549 35,000  Level Denver Center
07:49PM 41.8683 -106.7181 82° East 479 551 35,000  Level Denver Center
07:50PM 41.8867 -106.5511 82° East 475 547 35,000  Level Denver Center
07:51PM 41.9078 -106.3647 81° East 476 548 35,000  Level Denver Center
07:52PM 41.9278 -106.1686 82° East 476 548 35,000  Level Denver Center
07:53PM 41.9461 -106.0031 81° East 471 542 35,000  Level Denver Center
07:54PM 41.9658 -105.8061 82° East 475 547 35,000  Level Denver Center
07:55PM 41.9831 -105.6397 82° East 471 542 35,000  Level Denver Center
07:56PM 41.9989 -105.4706 83° East 476 548 35,000  Level Denver Center
07:57PM 42.0178 -105.2739 83° East 477 549 35,000  Level Denver Center
07:58PM 42.0353 -105.1047 82° East 479 551 35,000  Level Denver Center
07:59PM 42.0508 -104.9336 83° East 482 555 35,000  Level Denver Center
08:00PM 42.0719 -104.7086 83° East 479 551 35,000  Level Denver Center
08:01PM 42.0886 -104.5411 82° East 475 547 35,000  Level Denver Center
08:02PM 42.1050 -104.3444 84° East 478 550 35,000  Level Denver Center
08:03PM 42.1197 -104.1767 83° East 475 547 35,000  Level Denver Center
08:04PM 42.1367 -103.9797 83° East 476 548 35,000  Level Denver Center
08:05PM 42.1514 -103.8106 83° East 477 549 35,000  Level Denver Center
08:06PM 42.1683 -103.6133 83° East 476 548 35,000  Level Denver Center
08:07PM 42.1831 -103.4444 83° East 476 548 35,000  Level Denver Center
08:08PM 42.1978 -103.2756 83° East 475 547 35,000  Level Denver Center
08:09PM 42.2125 -103.0806 84° East 471 542 35,000  Level Denver Center
08:10PM 42.2253 -102.9128 84° East 471 542 35,000  Level Denver Center
08:11PM 42.2406 -102.7178 84° East 469 540 35,000  Level Denver Center
08:12PM 42.2531 -102.5503 84° East 470 541 35,000  Level Denver Center
08:13PM 42.2672 -102.3539 84° East 471 542 35,000  Level Denver Center
08:14PM 42.2797 -102.1847 84° East 474 545 35,000  Level Denver Center
08:15PM 42.2939 -101.9875 84° East 473 544 35,000  Level Denver Center
08:17PM 42.3036 -101.8189 85° East 475 547 35,000  Level Denver Center
08:18PM 42.3189 -101.5942 85° East 472 543 35,000  Level Denver Center
08:19PM 42.3292 -101.4253 85° East 471 542 35,000  Level Denver Center
08:20PM 42.3422 -101.2247 85° East 476 548 35,000  Level Denver Center
08:21PM 42.3514 -101.0558 86° East 473 544 35,000  Level Denver Center
08:22PM 42.3625 -100.8889 85° East 468 539 35,000  Level Denver Center
08:23PM 42.3742 -100.6878 85° East 476 548 35,000  Level Denver Center
08:24PM 42.3861 -100.4808 85° East 476 548 35,000  Level Minneapolis Center
08:25PM 42.3942 -100.3186 86° East 473 544 35,000  Level Denver Center
08:26PM 42.4031 -100.1458 86° East 478 550 35,000  Level Denver Center
08:27PM 42.4136 -99.9483 86° East 474 545 35,000  Level Denver Center
08:28PM 42.4222 -99.7681 86° East 473 544 35,000  Level Minneapolis Center
08:29PM 42.4317 -99.5897 86° East 474 545 35,000  Level Minneapolis Center
08:30PM 42.4381 -99.4103 87° East 476 548 35,000  Level Minneapolis Center
08:31PM 42.4444 -99.2317 87° East 476 548 35,000  Level Minneapolis Center
08:32PM 42.4511 -99.0172 88° East 474 545 35,000  Level Minneapolis Center
08:33PM 42.4561 -98.8394 88° East 472 543 35,000  Level Minneapolis Center
08:34PM 42.4606 -98.6617 88° East 471 542 35,000  Level Minneapolis Center
08:35PM 42.4656 -98.4847 88° East 470 541 35,000  Level Minneapolis Center
08:36PM 42.4700 -98.3425 88° East 471 542 35,000  Level Minneapolis Center
08:37PM 42.4739 -98.1281 89° East 474 545 35,000  Level Minneapolis Center
08:38PM 42.4772 -97.9486 88° East 476 548 35,000 60 Level Minneapolis Center
08:39PM 42.4822 -97.7428 88° East 478 550 35,200 300 Climbing Minneapolis Center
08:40PM 42.4858 -97.5639 88° East 476 548 35,700 480 Climbing Minneapolis Center
08:41PM 42.4889 -97.3847 89° East 476 548 36,200 480 Climbing Minneapolis Center
08:42PM 42.4906 -97.2089 89° East 469 540 36,800 360 Climbing Minneapolis Center
08:44PM 42.4933 -97.0325 89° East 467 537 37,000 60 Climbing Minneapolis Center
08:45PM 42.4956 -96.8542 89° East 470 541 37,000  Level Minneapolis Center
08:46PM 42.4894 -96.6011 92° East 475 547 37,000  Level Minneapolis Center
08:47PM 42.4739 -96.4200 97° East 482 555 37,000  Level Minneapolis Center
08:48PM 42.4592 -96.2403 96° East 480 552 37,000  Level Minneapolis Center
08:49PM 42.4439 -96.0583 96° East 483 556 37,000  Level Minneapolis Center
08:50PM 42.4281 -95.8800 97° East 479 551 37,000  Level Minneapolis Center
08:51PM 42.4133 -95.7031 96° East 476 548 37,000  Level Minneapolis Center
08:52PM 42.3972 -95.5225 97° East 478 550 37,000  Level Minneapolis Center
08:53PM 42.3775 -95.3114 97° East 472 543 37,000  Level Minneapolis Center
08:54PM 42.3614 -95.1350 97° East 471 542 37,000  Level Minneapolis Center
08:55PM 42.3439 -94.9572 98° East 474 545 37,000  Level Minneapolis Center
08:56PM 42.3278 -94.7819 97° East 470 541 37,000  Level Minneapolis Center
08:57PM 42.3106 -94.6044 97° East 473 544 37,000  Level Minneapolis Center
08:58PM 42.2911 -94.4275 98° East 474 545 37,000  Level Minneapolis Center
08:59PM 42.2731 -94.2508 98° East 474 545 37,000  Level Minneapolis Center
09:00PM 42.2533 -94.0417 97° East 472 543 37,000  Level Minneapolis Center
09:01PM 42.2350 -93.8700 98° East 468 539 37,000  Level Minneapolis Center
09:03PM 42.2136 -93.6636 98° East 469 540 37,000  Level Minneapolis Center
09:04PM 42.1958 -93.4931 98° East 465 535 37,000  Level Minneapolis Center
09:05PM 42.1764 -93.3219 99° East 466 536 37,000  Level Minneapolis Center
09:06PM 42.1539 -93.1158 98° East 469 540 37,000  Level Minneapolis Center
09:07PM 42.1308 -92.9111 99° East 467 537 37,000  Level Minneapolis Center
09:08PM 42.1114 -92.7389 99° East 470 541 37,000  Level Minneapolis Center
09:09PM 42.0908 -92.5664 99° East 470 541 37,000  Level Minneapolis Center
09:09PM 42.0794 -92.4631 98° East 471 542 37,000  Level Chicago Center
09:11PM 42.0586 -92.2911 99° East 472 543 37,000  Level Chicago Center
09:12PM 42.0383 -92.1200 99° East 472 543 37,000  Level Chicago Center
09:13PM 42.0131 -91.9125 99° East 476 548 37,000  Level Chicago Center
09:14PM 41.9925 -91.7428 99° East 470 541 37,000  Level Chicago Center
09:15PM 41.9706 -91.5692 100° East 475 547 37,000  Level Chicago Center
09:16PM 41.9486 -91.3989 100° East 472 543 37,000  Level Chicago Center
09:17PM 41.9225 -91.1925 100° East 473 544 37,000  Level Chicago Center
09:18PM 41.9006 -91.0217 100° East 471 542 37,000  Level Chicago Center
09:19PM 41.8778 -90.8511 100° East 471 542 37,000  Level Chicago Center
09:20PM 41.8556 -90.6792 100° East 472 543 37,000  Level Chicago Center
09:21PM 41.8308 -90.5106 101° East 468 539 37,000  Level Chicago Center
09:22PM 41.8036 -90.3039 100° East 473 544 37,000  Level Chicago Center
09:23PM 41.7833 -90.1564 100° East 475 547 37,000  Level Chicago Center
09:24PM 41.7544 -89.9461 100° East 476 548 37,000  Level Chicago Center
09:25PM 41.7306 -89.7686 100° East 481 554 37,000  Level Chicago Center
09:26PM 41.7056 -89.5939 101° East 478 550 37,000  Level Chicago Center
09:27PM 41.6781 -89.4067 101° East 476 548 37,000  Level Chicago Center
09:28PM 41.6525 -89.2328 101° East 478 550 37,000  Level Chicago Center
09:29PM 41.6275 -89.0611 101° East 474 545 37,000  Level Chicago Center
09:30PM 41.6011 -88.8892 102° East 477 549 37,000  Level Chicago Center
09:31PM 41.5744 -88.7175 102° East 476 548 37,000  Level Chicago Center
09:32PM 41.5483 -88.5467 101° East 474 545 37,000  Level Chicago Center
09:33PM 41.5167 -88.3417 102° East 474 545 37,000  Level Chicago Center
09:34PM 41.4906 -88.1692 101° East 481 554 37,000  Level Chicago Center
09:35PM 41.4633 -87.9939 102° East 484 557 37,000  Level Chicago Center
09:36PM 41.4325 -87.8047 102° East 481 554 37,000  Level Chicago Center
09:37PM 41.4047 -87.6317 102° East 480 552 37,000  Level Chicago Center
09:38PM 41.3778 -87.4581 102° East 481 554 37,000  Level Chicago Center
09:39PM 41.3469 -87.2864 103° East 479 551 37,000  Level Chicago Center
09:40PM 41.3189 -87.1136 102° East 480 552 37,000  Level Chicago Center
09:41PM 41.2900 -86.9411 103° East 480 552 37,000  Level Chicago Center
09:42PM 41.2600 -86.7689 103° East 482 555 37,000  Level Chicago Center
09:43PM 41.2286 -86.5842 103° East 479 551 37,000  Level Chicago Center
09:44PM 41.1994 -86.4114 103° East 482 555 37,000  Level Chicago Center
09:45PM 41.1689 -86.2408 103° East 480 552 37,000  Level Chicago Center
09:46PM 41.1336 -86.0353 103° East 478 550 37,000  Level Chicago Center
09:48PM 41.0964 -85.8639 106° East 487 560 37,000  Level Chicago Center
09:49PM 41.0483 -85.6969 111° Southeast 490 564 37,000  Level Chicago Center
09:50PM 41.0033 -85.5275 109° East 494 568 37,000  Level Chicago Center
09:51PM 40.9569 -85.3586 110° East 492 566 37,000  Level Chicago Center
09:52PM 40.9100 -85.1864 110° East 500 575 37,000  Level Chicago Center
09:53PM 40.8625 -85.0183 110° East 495 570 37,000  Level Chicago Center
09:54PM 40.8164 -84.8500 110° East 492 566 37,000  Level Chicago Center
09:55PM 40.7583 -84.6494 111° Southeast 490 564 37,000  Level Chicago Center
09:56PM 40.7106 -84.4811 110° East 492 566 37,000  Level Chicago Center
09:57PM 40.6631 -84.3128 110° East 493 567 37,000  Level Chicago Center
09:57PM 40.6536 -84.2794 110° East 491 565 37,000  Level Indianapolis Center
09:58PM 40.6047 -84.1097 111° Southeast 490 564 37,000 -60 Level Indianapolis Center
09:59PM 40.5547 -83.9397 111° Southeast 493 567 36,900  Descending Indianapolis Center
10:00PM 40.5044 -83.7681 111° Southeast 495 570 37,000  Climbing Indianapolis Center
10:01PM 40.4547 -83.5964 111° Southeast 496 571 37,000  Level Indianapolis Center
10:02PM 40.4033 -83.4233 111° Southeast 501 577 37,000 -60 Level Indianapolis Center
10:03PM 40.3514 -83.2506 111° Southeast 503 579 36,900  Descending Indianapolis Center
10:04PM 40.2906 -83.0486 111° Southeast 503 579 37,000  Climbing Indianapolis Center
10:05PM 40.2389 -82.8775 112° Southeast 500 575 37,000 -60 Level Indianapolis Center
10:06PM 40.1903 -82.7067 110° East 495 570 36,900 -60 Descending Indianapolis Center
10:07PM 40.1406 -82.5386 111° Southeast 491 565 36,900  Level Indianapolis Center
10:08PM 40.0906 -82.3725 111° Southeast 487 560 37,000  Climbing Indianapolis Center
10:09PM 40.0411 -82.2061 111° Southeast 487 560 37,000 -60 Level Indianapolis Center
10:10PM 39.9914 -82.0419 112° Southeast 484 557 36,900  Descending Indianapolis Center
10:11PM 39.9417 -81.8775 111° Southeast 483 556 37,000  Climbing Indianapolis Center
10:12PM 39.8922 -81.7142 111° Southeast 481 554 36,900  Descending Indianapolis Center
10:13PM 39.8422 -81.5508 112° Southeast 482 555 37,000  Climbing Indianapolis Center
10:14PM 39.8136 -81.4694 115° Southeast 474 545 36,900  Descending Cleveland Center
10:15PM 39.7708 -81.3122 109° East 474 545 37,000  Climbing Cleveland Center
10:16PM 39.7217 -81.1497 111° Southeast 474 545 37,000  Level Cleveland Center
10:17PM 39.6703 -80.9875 112° Southeast 474 545 37,000  Level Cleveland Center
10:18PM 39.6208 -80.8283 112° Southeast 474 545 37,000  Level Cleveland Center
10:18PM 39.5889 -80.7408 115° Southeast 486 559 37,000  Level Indianapolis Center
10:19PM 39.5361 -80.5767 113° Southeast 490 564 37,000  Level Indianapolis Center
10:20PM 39.5086 -80.4836 111° Southeast 483 556 37,000 -900 Level Cleveland Center
10:21PM 39.4453 -80.2814 112° Southeast 475 547 35,500 -1,440 Descending Washington Center
10:22PM 39.3911 -80.1194 113° Southeast 486 559 33,700 -1,380 Descending Washington Center
10:23PM 39.3389 -79.9525 112° Southeast 486 559 32,800 -1,380 Descending Washington Center
10:24PM 39.2947 -79.7861 109° East 492 566 31,000 -900 Descending Washington Center
10:25PM 39.2800 -79.6111 96° East 482 555 31,000 -300 Level Washington Center
10:26PM 39.2667 -79.4386 96° East 482 555 30,500 -1,620 Descending Washington Center
10:27PM 39.2533 -79.2692 96° East 482 555 27,900 -1,860 Descending Washington Center
10:28PM 39.2372 -79.1103 97° East 470 541 26,900 -1,380 Descending Washington Center
10:29PM 39.2247 -78.9622 96° East 441 507 25,200 -1,860 Descending Washington Center
10:30PM 39.2100 -78.8194 98° East 420 483 23,200 -1,920 Descending Washington Center
10:31PM 39.1950 -78.6742 98° East 408 470 21,300 -1,920 Descending Washington Center
10:32PM 39.1817 -78.5344 97° East 408 470 19,300 -1,920 Descending Washington Center
10:33PM 39.1664 -78.3972 98° East 398 458 17,500 -1,200 Descending Washington Center
10:34PM 39.1400 -78.2706 105° East 379 436 17,000 -1,080 Descending Washington Center
10:35PM 39.1111 -78.1544 108° East 359 413 15,400 -1,020 Descending Washington Center
10:36PM 39.0842 -78.0492 108° East 349 402 15,000 -960 Descending Washington Center
10:37PM 39.0533 -77.9306 108° East 344 396 13,500 -1,620 Descending Washington Center
10:38PM 39.0261 -77.8175 107° East 339 390 11,800 -1,380 Descending Washington Center
10:39PM 38.9950 -77.6989 109° East 328 377 10,800 -960 Descending Washington Center
10:40PM 38.9667 -77.6167 114° Southeast 309 356 10,100 -1,140 Descending Potomac TRACON
10:41PM 38.9333 -77.5167 113° Southeast 295 339 8,900 -1,260 Descending Potomac TRACON
10:42PM 38.9000 -77.4167 113° Southeast 294 338 7,600 -1,320 Descending Potomac TRACON
10:43PM 38.8500 -77.3333 128° Southeast 284 327 6,200 -960 Descending Potomac TRACON
10:44PM 38.8167 -77.2500 117° Southeast 273 314 5,700 -960 Descending Potomac TRACON
10:45PM 38.7500 -77.1667 136° Southeast 270 311 4,300 -1,020 Descending Potomac TRACON
10:46PM 38.7167 -77.1167 131° Southeast 243 280 3,700 -1,140 Descending Potomac TRACON
10:47PM 38.7167 -77.0500 90° East 204 235 2,200 -1,500 Descending Potomac TRACON